PWSweather.com
Personal Weather Stations
Station Observations
REUBENS
Camas Prairie, Reubens, ID 83548

Camas PrairieReubens, ID 83548

Lat: 46.35417, Lon: -116.53167

Elevation: 3480

Station Type: Davis VantagePro 2

http://www.theobrienranch.com/wx/wx.htm

Latest ConditionsUpdated 6:30:01 PM PST Friday, Jan 17, 2020
Currently Today's Max Today's Min Today's Average
Temperature 25.0°F-3.9°C 31.3°F-0.4°C 12.1°F-11.1°C 23.7°F-4.6°C
Dew Point 20.9°F-6.2°C 26.4°F-3.1°C 9.7°F-12.4°C 20.5°F-6.4°C
Winds 1.2 mph SSW1.9 kmh SSW 9.2 mph -14.8 kmh - - 3.0 mph 4.8 kmh
Wind Gusts 2.3 mph3.7 kmh 19.6 mph31.5 kmh - -
Humidity 84% 94% 80% 88%
Pressure 30.52 in1033.5 mb 30.52 in1033.5 mb 29.91 in1012.9 mb -
Precipitation - 0.09 in2.3 mm - -
Hour Temp Dew Point Humidity Winds Wind Gusts Pressure Precip Precip Rate Daily Precip Total
06:30 PM 25.0°F-3.9°C 20.9°F-6.2°C 84% 1.2 mph SSW1.9 kmh SSW 2.3 mph3.7 kmh 30.52 in1033.5 mb - 0.00 in0.0 mm 0.09 in2.3 mm
06:15 PM 25.1°F-3.8°C 20.9°F-6.2°C 84% Calm Calm -- 30.52 in1033.5 mb - 0.00 in0.0 mm 0.09 in2.3 mm
06:00 PM 24.4°F-4.2°C 20.8°F-6.2°C 86% 2.3 mph SSW3.7 kmh SSW 2.3 mph3.7 kmh 30.51 in1033.2 mb - 0.00 in0.0 mm 0.09 in2.3 mm
05:45 PM 24.1°F-4.4°C 20.5°F-6.4°C 86% 2.3 mph SSW3.7 kmh SSW 2.3 mph3.7 kmh 30.51 in1033.2 mb - 0.00 in0.0 mm 0.09 in2.3 mm
05:30 PM 24.2°F-4.3°C 20.3°F-6.5°C 85% 1.2 mph SW1.9 kmh SW 3.5 mph5.6 kmh 30.51 in1033.2 mb - 0.00 in0.0 mm 0.09 in2.3 mm
05:15 PM 24.6°F-4.1°C 20.7°F-6.3°C 85% 4.6 mph S7.4 kmh S 4.6 mph7.4 kmh 30.51 in1033.2 mb - 0.00 in0.0 mm 0.09 in2.3 mm
05:00 PM 24.9°F-3.9°C 21.0°F-6.1°C 85% 2.3 mph ESE3.7 kmh ESE 3.5 mph5.6 kmh 30.49 in1032.5 mb - 0.00 in0.0 mm 0.09 in2.3 mm
04:45 PM 25.6°F-3.6°C 22.0°F-5.6°C 86% 1.2 mph ESE1.9 kmh ESE 2.3 mph3.7 kmh 30.49 in1032.5 mb - 0.00 in0.0 mm 0.09 in2.3 mm
04:30 PM 25.4°F-3.7°C 21.8°F-5.7°C 86% 1.2 mph ESE1.9 kmh ESE 1.2 mph1.9 kmh 30.49 in1032.5 mb - 0.00 in0.0 mm 0.09 in2.3 mm
04:15 PM 26.4°F-3.1°C 21.4°F-5.9°C 81% 2.3 mph SSE3.7 kmh SSE 2.3 mph3.7 kmh 30.48 in1032.2 mb - 0.00 in0.0 mm 0.09 in2.3 mm
04:00 PM 26.3°F-3.2°C 21.6°F-5.8°C 82% 2.3 mph SW3.7 kmh SW 6.9 mph11.1 kmh 30.48 in1032.2 mb - 0.00 in0.0 mm 0.09 in2.3 mm
03:45 PM 25.5°F-3.6°C 21.4°F-5.9°C 84% 1.2 mph SSW1.9 kmh SSW 3.5 mph5.6 kmh 30.47 in1031.8 mb - 0.00 in0.0 mm 0.09 in2.3 mm
03:30 PM 26.2°F-3.2°C 22.3°F-5.4°C 85% 2.3 mph E3.7 kmh E 3.5 mph5.6 kmh 30.46 in1031.5 mb - 0.00 in0.0 mm 0.09 in2.3 mm
03:15 PM 26.2°F-3.2°C 22.0°F-5.6°C 84% 3.5 mph E5.6 kmh E 3.5 mph5.6 kmh 30.46 in1031.5 mb - 0.00 in0.0 mm 0.09 in2.3 mm
03:00 PM 26.4°F-3.1°C 22.5°F-5.3°C 85% 2.3 mph E3.7 kmh E 3.5 mph5.6 kmh 30.44 in1030.8 mb - 0.00 in0.0 mm 0.09 in2.3 mm
02:45 PM 26.2°F-3.2°C 22.6°F-5.2°C 86% 3.5 mph E5.6 kmh E 3.5 mph5.6 kmh 30.44 in1030.8 mb - 0.00 in0.0 mm 0.09 in2.3 mm
02:30 PM 25.6°F-3.6°C 22.0°F-5.6°C 86% 3.5 mph ESE5.6 kmh ESE 3.5 mph5.6 kmh 30.43 in1030.5 mb - 0.00 in0.0 mm 0.09 in2.3 mm
02:15 PM 25.4°F-3.7°C 21.0°F-6.1°C 83% 3.5 mph SE5.6 kmh SE 3.5 mph5.6 kmh 30.43 in1030.5 mb - 0.01 in0.3 mm 0.09 in2.3 mm
02:00 PM 29.2°F-1.6°C 24.7°F-4.1°C 83% 2.3 mph NNE3.7 kmh NNE 3.5 mph5.6 kmh 30.41 in1029.8 mb - 0.01 in0.3 mm 0.09 in2.3 mm
01:45 PM 30.1°F-1.1°C 26.2°F-3.2°C 85% Calm Calm 1.2 mph1.9 kmh 30.40 in1029.5 mb - 0.01 in0.3 mm 0.09 in2.3 mm
01:30 PM 29.8°F-1.2°C 25.8°F-3.4°C 85% Calm Calm 1.2 mph1.9 kmh 30.39 in1029.1 mb - 0.01 in0.3 mm 0.09 in2.3 mm
01:15 PM 29.5°F-1.4°C 25.5°F-3.6°C 85% Calm Calm -- 30.39 in1029.1 mb - 0.00 in0.0 mm 0.08 in2.0 mm
01:00 PM 27.9°F-2.3°C 24.6°F-4.1°C 87% Calm Calm 1.2 mph1.9 kmh 30.40 in1029.5 mb - 0.01 in0.3 mm 0.08 in2.0 mm
12:45 PM 26.6°F-3.0°C 23.0°F-5.0°C 86% 1.2 mph NE1.9 kmh NE 2.3 mph3.7 kmh 30.41 in1029.8 mb - 0.01 in0.3 mm 0.08 in2.0 mm
12:30 PM 24.7°F-4.1°C 20.8°F-6.2°C 85% 2.3 mph NE3.7 kmh NE 3.5 mph5.6 kmh 30.41 in1029.8 mb - 0.02 in0.5 mm 0.08 in2.0 mm
12:15 PM 25.0°F-3.9°C 21.1°F-6.1°C 85% 1.2 mph E1.9 kmh E 2.3 mph3.7 kmh 30.42 in1030.1 mb - 0.03 in0.8 mm 0.08 in2.0 mm
12:00 PM 25.4°F-3.7°C 21.3°F-5.9°C 84% 2.3 mph E3.7 kmh E 2.3 mph3.7 kmh 30.41 in1029.8 mb - 0.02 in0.5 mm 0.07 in1.8 mm
11:45 AM 26.5°F-3.1°C 21.8°F-5.7°C 82% 2.3 mph E3.7 kmh E 3.5 mph5.6 kmh 30.40 in1029.5 mb - 0.03 in0.8 mm 0.07 in1.8 mm
11:30 AM 31.3°F-0.4°C 26.4°F-3.1°C 82% Calm Calm 2.3 mph3.7 kmh 30.38 in1028.8 mb - 0.04 in1.0 mm 0.06 in1.5 mm
11:15 AM 26.0°F-3.3°C 21.6°F-5.8°C 83% 2.3 mph SE3.7 kmh SE 2.3 mph3.7 kmh 30.40 in1029.5 mb - 0.03 in0.8 mm 0.05 in1.3 mm
11:00 AM 26.0°F-3.3°C 20.7°F-6.3°C 80% 4.6 mph S7.4 kmh S 5.8 mph9.3 kmh 30.39 in1029.1 mb - 0.04 in1.0 mm 0.05 in1.3 mm
10:45 AM 25.8°F-3.4°C 20.8°F-6.2°C 81% 2.3 mph S3.7 kmh S 3.5 mph5.6 kmh 30.40 in1029.5 mb - 0.04 in1.0 mm 0.04 in1.0 mm
10:30 AM 27.7°F-2.4°C 23.8°F-4.6°C 85% 1.2 mph SE1.9 kmh SE 2.3 mph3.7 kmh 30.38 in1028.8 mb - 0.02 in0.5 mm 0.02 in0.5 mm
10:15 AM 22.7°F-5.2°C 18.6°F-7.4°C 84% 2.3 mph SE3.7 kmh SE 4.6 mph7.4 kmh 30.41 in1029.8 mb - 0.02 in0.5 mm 0.02 in0.5 mm
10:00 AM 23.8°F-4.6°C 19.4°F-7.0°C 83% 1.2 mph SW1.9 kmh SW 2.3 mph3.7 kmh 30.39 in1029.1 mb - 0.01 in0.3 mm 0.01 in0.3 mm
09:45 AM 23.3°F-4.8°C 18.6°F-7.4°C 82% 3.5 mph SW5.6 kmh SW 3.5 mph5.6 kmh 30.39 in1029.1 mb - 0.00 in0.0 mm 0.00 in0.0 mm
09:30 AM 23.5°F-4.7°C 19.3°F-7.1°C 84% 6.9 mph SW11.1 kmh SW 6.9 mph11.1 kmh 30.38 in1028.8 mb - 0.00 in0.0 mm 0.00 in0.0 mm
09:15 AM 21.9°F-5.6°C 18.4°F-7.6°C 86% 4.6 mph S7.4 kmh S 4.6 mph7.4 kmh 30.37 in1028.4 mb - 0.00 in0.0 mm 0.00 in0.0 mm
09:00 AM 21.1°F-6.1°C 17.6°F-8.0°C 86% 3.5 mph S5.6 kmh S 4.6 mph7.4 kmh 30.36 in1028.1 mb - 0.00 in0.0 mm 0.00 in0.0 mm
08:45 AM 20.1°F-6.6°C 16.8°F-8.4°C 87% 3.5 mph S5.6 kmh S 4.6 mph7.4 kmh 30.35 in1027.8 mb - 0.00 in0.0 mm 0.00 in0.0 mm
08:30 AM 19.8°F-6.8°C 16.8°F-8.4°C 88% 1.2 mph S1.9 kmh S 3.5 mph5.6 kmh 30.35 in1027.8 mb - 0.00 in0.0 mm 0.00 in0.0 mm
08:15 AM 18.4°F-7.6°C 16.2°F-8.8°C 91% 3.5 mph S5.6 kmh S 3.5 mph5.6 kmh 30.35 in1027.8 mb - 0.00 in0.0 mm 0.00 in0.0 mm
08:00 AM 13.9°F-10.1°C 11.5°F-11.4°C 90% 3.5 mph SSW5.6 kmh SSW 3.5 mph5.6 kmh 30.35 in1027.8 mb - 0.00 in0.0 mm 0.00 in0.0 mm
07:45 AM 12.1°F-11.1°C 9.7°F-12.4°C 90% 2.3 mph SSW3.7 kmh SSW 3.5 mph5.6 kmh 30.35 in1027.8 mb - 0.00 in0.0 mm 0.00 in0.0 mm
07:30 AM 12.6°F-10.8°C 9.9°F-12.3°C 89% 3.5 mph SW5.6 kmh SW 3.5 mph5.6 kmh 30.34 in1027.4 mb - 0.00 in0.0 mm 0.00 in0.0 mm
07:15 AM 16.0°F-8.9°C 13.3°F-10.4°C 89% 3.5 mph SW5.6 kmh SW 3.5 mph5.6 kmh 30.32 in1026.8 mb - 0.00 in0.0 mm 0.00 in0.0 mm
07:00 AM 16.1°F-8.8°C 13.9°F-10.1°C 91% 2.3 mph SSW3.7 kmh SSW 3.5 mph5.6 kmh 30.30 in1026.1 mb - 0.00 in0.0 mm 0.00 in0.0 mm
06:45 AM 17.3°F-8.2°C 14.4°F-9.8°C 88% 3.5 mph SSW5.6 kmh SSW 3.5 mph5.6 kmh 30.29 in1025.7 mb - 0.00 in0.0 mm 0.00 in0.0 mm
06:30 AM 20.0°F-6.7°C 17.8°F-7.9°C 91% 2.3 mph SSE3.7 kmh SSE 3.5 mph5.6 kmh 30.26 in1024.7 mb - 0.00 in0.0 mm 0.00 in0.0 mm
06:15 AM 19.3°F-7.1°C 16.9°F-8.4°C 90% 1.2 mph NE1.9 kmh NE 3.5 mph5.6 kmh 30.26 in1024.7 mb - 0.00 in0.0 mm 0.00 in0.0 mm
06:00 AM 21.1°F-6.1°C 18.6°F-7.4°C 90% Calm Calm -- 30.23 in1023.7 mb - 0.00 in0.0 mm 0.00 in0.0 mm
05:45 AM 21.3°F-5.9°C 19.1°F-7.2°C 91% 2.3 mph W3.7 kmh W 3.5 mph5.6 kmh 30.22 in1023.4 mb - 0.00 in0.0 mm 0.00 in0.0 mm
05:30 AM 21.2°F-6.0°C 18.7°F-7.4°C 90% 1.2 mph W1.9 kmh W 2.3 mph3.7 kmh 30.21 in1023.0 mb - 0.00 in0.0 mm 0.00 in0.0 mm
05:15 AM 21.2°F-6.0°C 19.0°F-7.2°C 91% 3.5 mph W5.6 kmh W 4.6 mph7.4 kmh 30.20 in1022.7 mb - 0.00 in0.0 mm 0.00 in0.0 mm
05:00 AM 21.6°F-5.8°C 19.4°F-7.0°C 91% 3.5 mph W5.6 kmh W 5.8 mph9.3 kmh 30.19 in1022.4 mb - 0.00 in0.0 mm 0.00 in0.0 mm
04:45 AM 22.2°F-5.4°C 19.7°F-6.8°C 90% 2.3 mph WNW3.7 kmh WNW 3.5 mph5.6 kmh 30.18 in1022.0 mb - 0.00 in0.0 mm 0.00 in0.0 mm
04:30 AM 22.6°F-5.2°C 20.4°F-6.4°C 91% 4.6 mph WNW7.4 kmh WNW 5.8 mph9.3 kmh 30.17 in1021.7 mb - 0.00 in0.0 mm 0.00 in0.0 mm
04:15 AM 21.8°F-5.7°C 19.8°F-6.8°C 92% 3.5 mph WNW5.6 kmh WNW 3.5 mph5.6 kmh 30.16 in1021.3 mb - 0.00 in0.0 mm 0.00 in0.0 mm
04:00 AM 22.5°F-5.3°C 20.5°F-6.4°C 92% 2.3 mph W3.7 kmh W 3.5 mph5.6 kmh 30.14 in1020.7 mb - 0.00 in0.0 mm 0.00 in0.0 mm
03:45 AM 23.2°F-4.9°C 21.2°F-6.0°C 92% 6.9 mph W11.1 kmh W 9.2 mph14.8 kmh 30.13 in1020.3 mb - 0.00 in0.0 mm 0.00 in0.0 mm
03:30 AM 23.6°F-4.7°C 21.8°F-5.7°C 93% 3.5 mph WNW5.6 kmh WNW 3.5 mph5.6 kmh 30.11 in1019.6 mb - 0.00 in0.0 mm 0.00 in0.0 mm
03:15 AM 23.9°F-4.5°C 22.1°F-5.5°C 93% 3.5 mph NW5.6 kmh NW 3.5 mph5.6 kmh 30.09 in1019.0 mb - 0.00 in0.0 mm 0.00 in0.0 mm
03:00 AM 24.1°F-4.4°C 22.4°F-5.3°C 93% 4.6 mph WNW7.4 kmh WNW 5.8 mph9.3 kmh 30.07 in1018.3 mb - 0.00 in0.0 mm 0.00 in0.0 mm
02:45 AM 24.3°F-4.3°C 22.6°F-5.2°C 93% 5.8 mph NW9.3 kmh NW 5.8 mph9.3 kmh 30.06 in1017.9 mb - 0.00 in0.0 mm 0.00 in0.0 mm
02:30 AM 24.4°F-4.2°C 22.9°F-5.1°C 94% 3.5 mph NW5.6 kmh NW 5.8 mph9.3 kmh 30.05 in1017.6 mb - 0.00 in0.0 mm 0.00 in0.0 mm
02:15 AM 24.6°F-4.1°C 23.1°F-4.9°C 94% 6.9 mph W11.1 kmh W 19.6 mph31.5 kmh 30.03 in1016.9 mb - 0.00 in0.0 mm 0.00 in0.0 mm
02:00 AM 24.6°F-4.1°C 23.1°F-4.9°C 94% 5.8 mph WNW9.3 kmh WNW 9.2 mph14.8 kmh 30.01 in1016.3 mb - 0.00 in0.0 mm 0.00 in0.0 mm
01:45 AM 24.7°F-4.1°C 23.2°F-4.9°C 94% 9.2 mph W14.8 kmh W 15.0 mph24.1 kmh 30.00 in1015.9 mb - 0.00 in0.0 mm 0.00 in0.0 mm
01:30 AM 24.8°F-4.0°C 23.3°F-4.8°C 94% 5.8 mph WNW9.3 kmh WNW 6.9 mph11.1 kmh 29.98 in1015.2 mb - 0.00 in0.0 mm 0.00 in0.0 mm
01:15 AM 24.5°F-4.2°C 23.0°F-5.0°C 94% 5.8 mph WNW9.3 kmh WNW 6.9 mph11.1 kmh 29.98 in1015.2 mb - 0.00 in0.0 mm 0.00 in0.0 mm
01:00 AM 24.3°F-4.3°C 22.8°F-5.1°C 94% 4.6 mph WNW7.4 kmh WNW 11.5 mph18.5 kmh 29.98 in1015.2 mb - 0.00 in0.0 mm 0.00 in0.0 mm
12:45 AM 24.5°F-4.2°C 23.0°F-5.0°C 94% 6.9 mph WNW11.1 kmh WNW 6.9 mph11.1 kmh 29.95 in1014.2 mb - 0.00 in0.0 mm 0.00 in0.0 mm
12:30 AM 24.2°F-4.3°C 22.5°F-5.3°C 93% 5.8 mph WNW9.3 kmh WNW 6.9 mph11.1 kmh 29.94 in1013.9 mb - 0.00 in0.0 mm 0.00 in0.0 mm
12:15 AM 23.9°F-4.5°C 22.2°F-5.4°C 93% 3.5 mph WNW5.6 kmh WNW 4.6 mph7.4 kmh 29.93 in1013.5 mb - 0.00 in0.0 mm 0.00 in0.0 mm
12:00 AM 23.8°F-4.6°C 22.1°F-5.5°C 93% 4.6 mph WNW7.4 kmh WNW 5.8 mph9.3 kmh 29.91 in1012.9 mb - 0.00 in0.0 mm 0.00 in0.0 mm